createdAt,value
2023-03-31T00:02:06.065Z,11.96
2023-03-31T00:04:34.340Z,11.91
2023-03-31T00:07:01.235Z,11.86
2023-03-31T00:09:28.124Z,11.87
2023-03-31T00:11:55.321Z,11.92
2023-03-31T00:14:22.424Z,11.91
2023-03-31T00:16:49.356Z,11.98
2023-03-31T00:19:16.387Z,12.05
2023-03-31T00:21:44.928Z,12.09
2023-03-31T00:24:14.431Z,12.07
2023-03-31T00:26:41.292Z,12.04
2023-03-31T00:29:12.647Z,12.00
2023-03-31T00:31:39.990Z,12.05
2023-03-31T00:34:08.092Z,12.14
2023-03-31T00:36:35.449Z,12.11
2023-03-31T00:39:06.166Z,12.22
2023-03-31T00:41:33.199Z,11.92
2023-03-31T00:44:08.970Z,11.89
2023-03-31T00:46:44.241Z,11.97
2023-03-31T00:49:25.363Z,12.06
2023-03-31T00:51:57.679Z,11.92
2023-03-31T00:54:29.522Z,11.96
2023-03-31T00:56:57.329Z,12.05
2023-03-31T00:59:30.889Z,12.11
2023-03-31T01:02:00.409Z,11.86
2023-03-31T01:04:28.100Z,11.74
2023-03-31T01:07:04.913Z,11.65
2023-03-31T01:09:33.182Z,11.61
2023-03-31T01:12:01.691Z,11.56
2023-03-31T01:14:29.163Z,11.55
2023-03-31T01:16:56.098Z,11.59
2023-03-31T01:19:44.986Z,11.61
2023-03-31T01:23:06.144Z,11.69
2023-03-31T01:26:30.454Z,11.73
2023-03-31T01:29:09.497Z,11.68
2023-03-31T01:32:14.081Z,11.66
2023-03-31T01:35:44.697Z,11.67
2023-03-31T01:39:04.485Z,11.70
2023-03-31T01:41:53.254Z,11.70
2023-03-31T01:44:39.331Z,11.77
2023-03-31T01:47:16.034Z,11.90
2023-03-31T01:49:56.909Z,11.99
2023-03-31T01:52:34.023Z,12.08
2023-03-31T01:55:12.375Z,12.15
2023-03-31T01:57:47.964Z,12.16
2023-03-31T02:00:19.635Z,11.86
2023-03-31T02:02:56.626Z,11.84
2023-03-31T02:05:27.122Z,11.79
2023-03-31T02:08:02.071Z,11.73
2023-03-31T02:10:33.019Z,11.67
2023-03-31T02:13:04.153Z,11.63
2023-03-31T02:15:38.151Z,11.59
2023-03-31T02:18:11.171Z,11.63
2023-03-31T02:20:44.019Z,11.62
2023-03-31T02:23:16.160Z,11.63
2023-03-31T02:25:50.736Z,11.74
2023-03-31T02:28:24.567Z,11.74
2023-03-31T02:31:11.489Z,11.81
2023-03-31T02:33:38.412Z,11.87
2023-03-31T02:36:06.759Z,11.97
2023-03-31T02:38:40.303Z,12.10
2023-03-31T02:41:08.160Z,12.24
2023-03-31T02:43:36.780Z,12.28
2023-03-31T02:46:04.279Z,12.32
2023-03-31T02:48:38.301Z,12.16
2023-03-31T02:51:51.758Z,11.83
2023-03-31T02:54:58.927Z,11.73
2023-03-31T02:57:56.722Z,11.66
2023-03-31T03:00:47.951Z,11.56
2023-03-31T03:03:34.070Z,11.48
2023-03-31T03:06:25.167Z,11.52
2023-03-31T03:09:36.354Z,11.48
2023-03-31T03:12:21.233Z,11.51
2023-03-31T03:14:55.964Z,11.55
2023-03-31T03:17:30.359Z,11.54
2023-03-31T03:20:02.014Z,11.57
2023-03-31T03:22:29.210Z,11.59
2023-03-31T03:24:56.117Z,11.56
2023-03-31T03:27:23.128Z,11.58
2023-03-31T03:29:50.201Z,11.59
2023-03-31T03:32:17.199Z,11.60
2023-03-31T03:34:45.873Z,11.61
2023-03-31T03:37:12.980Z,11.63
2023-03-31T03:39:39.983Z,11.66
2023-03-31T03:42:06.924Z,11.70
2023-03-31T03:44:34.032Z,11.77
2023-03-31T03:47:00.826Z,11.78
2023-03-31T03:49:27.737Z,11.72
2023-03-31T03:51:56.289Z,11.82
2023-03-31T03:54:23.177Z,11.89
2023-03-31T03:56:50.085Z,11.93
2023-03-31T03:59:17.122Z,11.96
2023-03-31T04:01:44.467Z,12.02
2023-03-31T04:04:11.202Z,12.09
2023-03-31T04:06:38.248Z,12.16
2023-03-31T04:09:06.532Z,12.16
2023-03-31T04:11:34.204Z,12.15
2023-03-31T04:14:01.060Z,12.19
2023-03-31T04:16:28.191Z,12.10
2023-03-31T04:18:55.452Z,12.07
2023-03-31T04:21:23.616Z,12.06
2023-03-31T04:23:54.241Z,12.05
2023-03-31T04:26:23.058Z,12.04
2023-03-31T04:28:49.919Z,11.96
2023-03-31T04:31:17.890Z,11.92
2023-03-31T04:33:44.982Z,11.84
2023-03-31T04:36:12.221Z,11.81
2023-03-31T04:38:39.112Z,11.72
2023-03-31T04:41:06.254Z,11.69
2023-03-31T04:43:34.521Z,11.77
2023-03-31T04:46:01.432Z,11.84
2023-03-31T04:48:28.468Z,11.88
2023-03-31T04:50:55.340Z,11.91
2023-03-31T04:53:22.240Z,11.90
2023-03-31T04:55:49.858Z,11.92
2023-03-31T04:58:16.872Z,11.83
2023-03-31T05:00:45.561Z,11.73
2023-03-31T05:03:12.747Z,11.79
2023-03-31T05:05:39.704Z,11.72
2023-03-31T05:08:06.494Z,11.70
2023-03-31T05:10:33.604Z,11.63
2023-03-31T05:13:00.574Z,11.59
2023-03-31T05:15:27.478Z,11.52
2023-03-31T05:17:57.842Z,11.54
2023-03-31T05:20:24.783Z,11.46
2023-03-31T05:22:51.889Z,11.36
2023-03-31T05:25:18.978Z,11.34
2023-03-31T05:27:47.553Z,11.27
2023-03-31T05:30:15.567Z,11.20
2023-03-31T05:32:43.325Z,11.10
2023-03-31T05:35:11.816Z,10.99
2023-03-31T05:37:38.599Z,10.86
2023-03-31T05:40:07.712Z,10.64
2023-03-31T05:42:35.938Z,10.46
2023-03-31T05:45:03.568Z,10.43
2023-03-31T05:47:31.323Z,10.37
2023-03-31T05:49:58.470Z,10.43
2023-03-31T05:52:27.229Z,10.36
2023-03-31T05:54:54.154Z,10.45
2023-03-31T05:57:21.007Z,10.37
2023-03-31T05:59:47.980Z,10.33
2023-03-31T06:02:14.996Z,10.25
2023-03-31T06:04:41.981Z,10.09
2023-03-31T06:07:08.827Z,9.97
2023-03-31T06:09:37.257Z,9.93
2023-03-31T06:12:05.085Z,9.89
2023-03-31T06:14:31.970Z,9.88
2023-03-31T06:16:58.792Z,9.83
2023-03-31T06:19:25.798Z,9.83
2023-03-31T06:21:53.081Z,9.83
2023-03-31T06:24:20.016Z,9.84
2023-03-31T06:26:48.575Z,9.85
2023-03-31T06:29:16.224Z,9.91
2023-03-31T06:31:43.349Z,9.95
2023-03-31T06:34:10.571Z,9.97
2023-03-31T06:36:38.056Z,9.99
2023-03-31T06:39:07.390Z,10.00
2023-03-31T06:41:37.074Z,10.02
2023-03-31T06:44:06.826Z,10.05
2023-03-31T06:46:33.992Z,10.08
2023-03-31T06:49:00.960Z,10.08
2023-03-31T06:51:28.363Z,10.07
2023-03-31T06:53:56.133Z,10.06
2023-03-31T06:56:22.884Z,10.03
2023-03-31T06:58:50.756Z,10.06
2023-03-31T07:01:19.074Z,10.03
2023-03-31T07:03:47.647Z,10.15
2023-03-31T07:06:14.982Z,10.11
2023-03-31T07:08:41.734Z,10.08
2023-03-31T07:11:09.650Z,10.04
2023-03-31T07:13:36.874Z,10.13
2023-03-31T07:16:04.338Z,10.18
2023-03-31T07:18:34.799Z,10.22
2023-03-31T07:21:09.092Z,10.18
2023-03-31T07:23:38.128Z,10.29
2023-03-31T07:26:05.369Z,10.54
2023-03-31T07:28:35.113Z,10.62
2023-03-31T07:31:02.140Z,10.66
2023-03-31T07:33:28.878Z,10.68
2023-03-31T07:36:10.724Z,10.72
2023-03-31T07:44:38.466Z,10.85
2023-03-31T07:47:05.511Z,10.84
2023-03-31T07:49:34.050Z,10.95
2023-03-31T07:52:03.275Z,10.99
2023-03-31T07:54:30.211Z,11.08
2023-03-31T07:56:57.275Z,11.24
2023-03-31T07:59:24.222Z,11.36
2023-03-31T08:01:51.341Z,11.47
2023-03-31T08:04:18.627Z,11.59
2023-03-31T08:06:45.545Z,11.72
2023-03-31T08:09:13.775Z,11.87
2023-03-31T08:11:42.452Z,12.58
2023-03-31T08:14:09.394Z,12.41
2023-03-31T08:16:36.447Z,12.51
2023-03-31T08:19:03.759Z,12.51
2023-03-31T08:21:30.790Z,12.70
2023-03-31T08:23:58.510Z,12.67
2023-03-31T08:26:26.959Z,13.02
2023-03-31T08:28:54.113Z,13.09
2023-03-31T08:31:22.248Z,13.10
2023-03-31T08:33:50.156Z,13.06
2023-03-31T08:36:17.586Z,13.14
2023-03-31T08:38:44.808Z,13.31
2023-03-31T08:41:33.921Z,13.41
2023-03-31T08:44:09.056Z,13.55
2023-03-31T08:46:37.098Z,13.81
2023-03-31T08:49:07.420Z,13.98
2023-03-31T08:51:41.588Z,14.72
2023-03-31T08:54:19.418Z,14.36
2023-03-31T08:56:51.027Z,14.84
2023-03-31T08:59:27.737Z,15.31
2023-03-31T09:02:13.270Z,15.68
2023-03-31T09:09:39.349Z,15.43
2023-03-31T09:12:17.998Z,15.44
2023-03-31T09:14:54.525Z,15.47
2023-03-31T09:17:27.388Z,15.36
2023-03-31T09:31:54.222Z,17.93
2023-03-31T09:34:40.518Z,17.67
2023-03-31T09:37:32.239Z,17.78
2023-03-31T09:40:04.578Z,17.60
2023-03-31T09:42:36.770Z,17.19
2023-03-31T09:45:05.110Z,16.91
2023-03-31T09:47:39.978Z,16.96
2023-03-31T09:50:09.523Z,16.85
2023-03-31T09:52:44.260Z,17.42
2023-03-31T09:59:25.103Z,19.05
2023-03-31T10:01:57.481Z,19.17
2023-03-31T10:04:28.464Z,18.11
2023-03-31T10:06:59.614Z,17.82
2023-03-31T10:09:30.729Z,17.15
2023-03-31T10:12:05.804Z,16.64
2023-03-31T10:14:44.041Z,16.36
2023-03-31T10:17:16.872Z,15.75
2023-03-31T10:19:50.950Z,15.17
2023-03-31T10:22:29.698Z,15.23
2023-03-31T10:25:14.314Z,15.25
2023-03-31T10:27:43.004Z,15.73
2023-03-31T10:30:20.823Z,16.63
2023-03-31T10:32:51.369Z,15.98
2023-03-31T10:35:26.870Z,15.44
2023-03-31T10:37:59.344Z,14.87
2023-03-31T10:40:29.153Z,14.68
2023-03-31T10:43:05.605Z,14.58
2023-03-31T10:45:44.485Z,14.42
2023-03-31T10:48:23.852Z,14.46
2023-03-31T10:50:51.322Z,14.94
2023-03-31T10:53:19.924Z,15.41
2023-03-31T10:56:05.468Z,15.92
2023-03-31T10:59:04.640Z,16.56
2023-03-31T11:01:58.936Z,17.40
2023-03-31T11:04:51.689Z,18.80
2023-03-31T11:07:35.577Z,19.57
2023-03-31T11:10:29.188Z,19.32
2023-03-31T11:13:05.607Z,19.14
2023-03-31T11:15:42.633Z,18.78
2023-03-31T11:18:36.207Z,17.06
2023-03-31T11:21:20.754Z,16.39
2023-03-31T11:24:05.101Z,14.66
2023-03-31T11:26:48.069Z,13.76
2023-03-31T11:29:34.913Z,13.62
2023-03-31T11:32:31.497Z,13.46
2023-03-31T11:35:16.304Z,13.38
2023-03-31T11:38:08.334Z,13.23
2023-03-31T11:40:54.081Z,13.21
2023-03-31T11:43:32.697Z,13.39
2023-03-31T11:46:07.570Z,13.66
2023-03-31T11:48:44.294Z,13.46
2023-03-31T11:51:20.645Z,13.34
2023-03-31T11:53:51.444Z,13.57
2023-03-31T11:56:21.398Z,13.71
2023-03-31T11:58:53.993Z,14.14
2023-03-31T12:01:28.714Z,14.75
2023-03-31T12:04:04.791Z,15.03
2023-03-31T12:06:41.236Z,14.88
2023-03-31T12:09:19.652Z,15.44
2023-03-31T12:11:55.212Z,16.15
2023-03-31T12:14:32.441Z,16.06
2023-03-31T12:17:09.717Z,16.26
2023-03-31T12:19:48.024Z,16.12
2023-03-31T12:22:24.129Z,15.76
2023-03-31T12:24:54.896Z,15.93
2023-03-31T12:27:32.897Z,16.26
2023-03-31T12:30:09.395Z,15.88
2023-03-31T12:32:43.247Z,16.03
2023-03-31T12:35:20.239Z,15.99
2023-03-31T12:38:27.614Z,16.11
2023-03-31T12:41:08.324Z,15.60
2023-03-31T12:44:16.601Z,15.87
2023-03-31T12:47:21.679Z,15.84
2023-03-31T12:50:08.889Z,15.86
2023-03-31T12:52:53.378Z,15.66
2023-03-31T12:55:40.081Z,15.69
2023-03-31T12:58:42.728Z,15.73
2023-03-31T13:01:14.311Z,15.71
2023-03-31T13:04:08.660Z,15.65
2023-03-31T13:07:00.679Z,15.55
2023-03-31T13:09:50.911Z,15.47
2023-03-31T13:12:23.933Z,15.60
2023-03-31T13:14:53.551Z,15.46
2023-03-31T13:17:28.289Z,15.55
2023-03-31T13:20:14.876Z,15.15
2023-03-31T13:22:46.346Z,15.29
2023-03-31T13:25:53.644Z,15.53
2023-03-31T13:28:37.924Z,15.57
2023-03-31T13:31:07.866Z,15.43
2023-03-31T13:33:43.830Z,15.36
2023-03-31T13:36:49.224Z,15.38
2023-03-31T13:39:42.242Z,15.50
2023-03-31T13:42:39.525Z,15.58
2023-03-31T13:45:44.314Z,15.23
2023-03-31T13:48:50.419Z,15.06
2023-03-31T13:51:51.049Z,14.97
2023-03-31T13:55:01.773Z,15.08
2023-03-31T13:58:25.308Z,15.24
2023-03-31T14:01:27.411Z,15.19
2023-03-31T14:04:10.633Z,15.35
2023-03-31T14:06:45.177Z,15.58
2023-03-31T14:09:22.921Z,15.79
2023-03-31T14:11:49.812Z,15.60
2023-03-31T14:14:18.921Z,15.68
2023-03-31T14:16:52.844Z,15.79
2023-03-31T14:19:59.335Z,15.56
2023-03-31T14:22:44.333Z,15.44
2023-03-31T14:25:26.676Z,15.37
2023-03-31T14:28:09.353Z,15.51
2023-03-31T14:30:50.482Z,15.38
2023-03-31T14:33:36.288Z,15.57
2023-03-31T14:36:18.778Z,15.67
2023-03-31T14:38:46.187Z,15.53
2023-03-31T14:41:19.529Z,15.58
2023-03-31T14:43:50.840Z,15.51
2023-03-31T14:46:21.381Z,15.61
2023-03-31T14:48:51.706Z,15.37
2023-03-31T14:51:29.245Z,15.48
2023-03-31T14:53:57.618Z,15.51
2023-03-31T14:56:32.614Z,15.37
2023-03-31T14:59:02.173Z,15.31
2023-03-31T15:01:33.106Z,15.30
2023-03-31T15:04:06.393Z,15.23
2023-03-31T15:06:33.701Z,15.22
2023-03-31T15:09:03.987Z,15.21
2023-03-31T15:11:45.178Z,15.26
2023-03-31T15:14:13.041Z,15.28
2023-03-31T15:16:44.052Z,15.37
2023-03-31T15:19:19.784Z,15.31
2023-03-31T15:21:54.572Z,15.14
2023-03-31T15:24:21.780Z,15.07
2023-03-31T15:26:57.815Z,15.03
2023-03-31T15:36:32.735Z,14.92
2023-03-31T15:39:00.010Z,14.98
2023-03-31T15:41:30.950Z,14.89
2023-03-31T15:44:27.043Z,14.79
2023-03-31T15:47:02.147Z,14.78
2023-03-31T15:49:29.793Z,14.56
2023-03-31T15:51:58.461Z,14.60
2023-03-31T15:54:37.716Z,14.67
2023-03-31T15:57:08.231Z,14.60
2023-03-31T15:59:54.682Z,14.50
2023-03-31T16:02:27.461Z,14.44
2023-03-31T16:04:59.342Z,14.30
2023-03-31T16:07:33.911Z,14.15
2023-03-31T16:10:08.861Z,14.16
2023-03-31T16:12:41.819Z,14.19
2023-03-31T16:15:14.325Z,14.17
2023-03-31T16:17:51.257Z,14.18
2023-03-31T16:20:24.636Z,14.10
2023-03-31T16:22:57.705Z,14.18
2023-03-31T16:28:37.766Z,14.06
2023-03-31T16:31:31.823Z,13.94
2023-03-31T16:33:58.770Z,14.02
2023-03-31T16:36:25.868Z,14.07
2023-03-31T16:38:54.784Z,14.09
2023-03-31T16:41:23.988Z,14.10
2023-03-31T16:43:50.887Z,14.02
2023-03-31T16:46:18.802Z,13.91
2023-03-31T16:48:45.699Z,13.84
2023-03-31T16:51:12.618Z,13.75
2023-03-31T16:53:39.723Z,13.74
2023-03-31T16:56:10.548Z,13.73
2023-03-31T16:58:38.600Z,13.65
2023-03-31T17:01:07.767Z,13.64
2023-03-31T17:07:43.316Z,13.62
2023-03-31T17:10:11.581Z,13.50
2023-03-31T17:12:40.772Z,13.29
2023-03-31T17:15:09.608Z,12.92
2023-03-31T17:17:36.686Z,12.59
2023-03-31T17:20:04.790Z,12.37
2023-03-31T17:22:32.536Z,12.35
2023-03-31T17:24:59.862Z,12.14
2023-03-31T17:27:28.661Z,11.88
2023-03-31T17:29:57.084Z,11.83
2023-03-31T17:32:24.265Z,11.74
2023-03-31T17:34:51.285Z,11.82
2023-03-31T17:37:19.686Z,11.76
2023-03-31T17:39:46.646Z,11.77
2023-03-31T17:42:14.588Z,11.77
2023-03-31T17:44:41.593Z,11.71
2023-03-31T17:47:10.342Z,11.66
2023-03-31T17:49:37.572Z,11.60
2023-03-31T17:52:05.263Z,11.39
2023-03-31T17:54:32.521Z,11.25
2023-03-31T17:56:59.510Z,11.21
2023-03-31T17:59:29.952Z,11.13
2023-03-31T18:01:57.405Z,10.91
2023-03-31T18:04:25.793Z,10.82
2023-03-31T18:06:53.264Z,10.86
2023-03-31T18:09:20.550Z,10.81
2023-03-31T18:11:47.571Z,10.64
2023-03-31T18:14:14.492Z,10.40
2023-03-31T18:16:41.565Z,10.40
2023-03-31T18:19:10.501Z,10.31
2023-03-31T18:21:38.885Z,10.15
2023-03-31T18:24:07.056Z,10.02
2023-03-31T18:26:34.372Z,10.00
2023-03-31T18:29:01.375Z,9.96
2023-03-31T18:31:28.359Z,9.92
2023-03-31T18:33:57.397Z,9.83
2023-03-31T18:36:24.961Z,9.88
2023-03-31T18:38:53.322Z,9.90
2023-03-31T18:41:20.865Z,9.85
2023-03-31T18:43:47.805Z,9.85
2023-03-31T18:46:14.873Z,9.81
2023-03-31T18:48:42.036Z,9.74
2023-03-31T18:51:09.356Z,9.79
2023-03-31T18:53:36.563Z,9.75
2023-03-31T18:56:05.878Z,9.82
2023-03-31T18:58:32.923Z,9.85
2023-03-31T19:01:01.269Z,9.90
2023-03-31T19:03:29.010Z,9.86
2023-03-31T19:06:03.451Z,9.86
2023-03-31T19:08:32.046Z,9.83
2023-03-31T19:11:10.217Z,9.83
2023-03-31T19:13:37.616Z,9.83
2023-03-31T19:16:08.349Z,9.75
2023-03-31T19:18:36.905Z,9.73
2023-03-31T19:21:04.558Z,9.70
2023-03-31T19:23:32.539Z,9.72
2023-03-31T19:26:00.158Z,9.68
2023-03-31T19:28:30.657Z,9.70
2023-03-31T19:31:04.729Z,9.66
2023-03-31T19:33:32.334Z,9.65
2023-03-31T19:35:59.625Z,9.66
2023-03-31T19:38:27.435Z,9.67
2023-03-31T19:40:54.314Z,9.68
2023-03-31T19:43:24.612Z,9.71
2023-03-31T19:45:53.809Z,9.72
2023-03-31T19:48:23.677Z,9.79
2023-03-31T19:50:55.743Z,9.87
2023-03-31T19:53:23.787Z,9.82
2023-03-31T19:55:59.624Z,9.90
2023-03-31T19:58:27.984Z,9.89
2023-03-31T20:00:57.976Z,9.91
2023-03-31T20:03:29.299Z,9.98
2023-03-31T20:06:04.027Z,9.89
2023-03-31T20:08:30.921Z,9.79
2023-03-31T20:11:03.221Z,9.83
2023-03-31T20:13:31.278Z,9.87
2023-03-31T20:16:02.176Z,9.83
2023-03-31T20:18:29.546Z,9.67
2023-03-31T20:21:08.641Z,9.47
2023-03-31T20:23:36.665Z,9.51
2023-03-31T20:26:04.130Z,9.49
2023-03-31T20:28:33.663Z,9.50
2023-03-31T20:31:08.274Z,9.51
2023-03-31T20:33:35.310Z,9.45
2023-03-31T20:36:05.094Z,9.37
2023-03-31T20:38:33.003Z,9.35
2023-03-31T20:40:59.978Z,9.32
2023-03-31T20:43:27.218Z,9.39
2023-03-31T20:45:57.605Z,9.38
2023-03-31T20:48:26.299Z,9.34
2023-03-31T20:50:53.164Z,9.42
2023-03-31T20:53:20.085Z,9.52
2023-03-31T20:55:47.832Z,9.53
2023-03-31T20:58:15.210Z,9.62
2023-03-31T21:00:42.434Z,9.70
2023-03-31T21:03:09.669Z,9.72
2023-03-31T21:05:43.845Z,9.76
2023-03-31T21:08:12.655Z,9.80
2023-03-31T21:10:41.686Z,9.81
2023-03-31T21:13:09.554Z,9.87
2023-03-31T21:15:37.289Z,9.89
2023-03-31T21:18:04.516Z,9.94
2023-03-31T21:20:32.818Z,10.00
2023-03-31T21:23:02.140Z,10.05
2023-03-31T21:25:31.933Z,10.17
2023-03-31T21:27:59.387Z,10.19
2023-03-31T21:30:26.287Z,10.23
2023-03-31T21:32:53.270Z,10.22
2023-03-31T21:35:20.216Z,10.20
2023-03-31T21:37:49.571Z,10.23
2023-03-31T21:40:18.354Z,10.17
2023-03-31T21:42:45.253Z,10.14
2023-03-31T21:45:13.670Z,10.12
2023-03-31T21:47:40.681Z,10.06
2023-03-31T21:50:09.709Z,10.04
2023-03-31T21:52:36.653Z,9.98
2023-03-31T21:55:04.221Z,9.97
2023-03-31T21:57:32.593Z,10.00
2023-03-31T21:59:59.794Z,9.93
2023-03-31T22:02:26.731Z,9.92
2023-03-31T22:04:53.859Z,9.97
2023-03-31T22:07:21.227Z,9.94
2023-03-31T22:09:48.191Z,9.94
2023-03-31T22:12:15.068Z,10.00
2023-03-31T22:14:43.448Z,9.97
2023-03-31T22:17:10.704Z,10.02
2023-03-31T22:19:37.747Z,10.04
2023-03-31T22:22:04.856Z,10.17
2023-03-31T22:24:31.996Z,10.18
2023-03-31T22:26:58.883Z,10.18
2023-03-31T22:29:25.817Z,10.25
2023-03-31T22:31:54.810Z,10.23
2023-03-31T22:34:21.923Z,10.30
2023-03-31T22:36:49.508Z,10.31
2023-03-31T22:39:17.932Z,10.29
2023-03-31T22:41:45.612Z,10.23
2023-03-31T22:44:12.822Z,10.29
2023-03-31T22:46:39.914Z,10.24
2023-03-31T22:49:09.385Z,10.30
2023-03-31T22:51:36.502Z,10.35
2023-03-31T22:54:03.620Z,10.30
2023-03-31T22:56:30.675Z,10.36
2023-03-31T22:58:57.974Z,10.34
2023-03-31T23:01:25.522Z,10.34
2023-03-31T23:03:52.825Z,10.36
2023-03-31T23:06:21.477Z,10.37
2023-03-31T23:08:48.558Z,10.34
2023-03-31T23:11:16.311Z,10.32
2023-03-31T23:13:43.115Z,10.34
2023-03-31T23:16:13.038Z,10.35
2023-03-31T23:18:39.930Z,10.35
2023-03-31T23:21:07.170Z,10.31
2023-03-31T23:23:39.449Z,10.31
2023-03-31T23:26:06.782Z,10.27
2023-03-31T23:28:37.060Z,10.27
2023-03-31T23:31:05.581Z,10.24
2023-03-31T23:33:32.923Z,10.19
2023-03-31T23:36:01.484Z,10.15
2023-03-31T23:38:29.366Z,10.15
2023-03-31T23:40:58.743Z,10.28
2023-03-31T23:43:26.601Z,10.30
2023-03-31T23:45:54.501Z,10.24
2023-03-31T23:48:21.767Z,10.23
2023-03-31T23:50:48.580Z,10.20
2023-03-31T23:53:15.448Z,10.22
2023-03-31T23:55:43.367Z,10.27
2023-03-31T23:58:11.768Z,10.27
